createdAt,value
2017-10-15T08:55:27.980Z,11.50
2017-10-15T08:57:55.521Z,11.70
2017-10-15T09:00:23.079Z,10.30
2017-10-15T09:02:50.609Z,11.10
2017-10-15T09:05:18.118Z,11.20
2017-10-15T09:07:46.613Z,8.87
2017-10-15T09:10:15.630Z,10.13
2017-10-15T09:12:43.898Z,8.77
2017-10-15T09:15:12.185Z,8.40
2017-10-15T09:17:40.472Z,9.40
2017-10-15T09:20:09.946Z,8.23
2017-10-15T09:22:37.462Z,8.97
2017-10-15T09:25:04.982Z,8.47
2017-10-15T09:27:40.349Z,8.40
2017-10-15T09:30:07.879Z,8.10
2017-10-15T09:32:36.149Z,9.00
2017-10-15T09:35:04.417Z,8.30
2017-10-15T09:37:32.714Z,9.10
2017-10-15T09:40:00.209Z,8.63
2017-10-15T09:42:27.742Z,7.20
2017-10-15T09:44:55.265Z,7.50
2017-10-15T09:47:23.539Z,7.40
2017-10-15T09:49:51.839Z,7.23
2017-10-15T09:52:19.358Z,6.77
2017-10-15T09:54:46.879Z,7.80
2017-10-15T09:57:16.367Z,7.10
2017-10-15T09:59:43.886Z,7.77
2017-10-15T10:02:12.178Z,7.40
2017-10-15T10:04:40.451Z,6.93
2017-10-15T10:07:10.694Z,6.97
2017-10-15T10:09:38.193Z,7.30
2017-10-15T10:12:07.678Z,7.03
2017-10-15T10:14:35.182Z,6.47
2017-10-15T10:17:03.450Z,7.50
2017-10-15T10:19:31.750Z,6.50
2017-10-15T10:21:59.261Z,6.40
2017-10-15T10:24:26.791Z,6.60
2017-10-15T10:26:55.557Z,6.13
2017-10-15T10:29:23.229Z,6.03
2017-10-15T10:31:50.757Z,6.10
2017-10-15T10:34:19.026Z,5.23
2017-10-15T10:36:47.645Z,5.77
2017-10-15T10:39:15.602Z,5.87
2017-10-15T10:41:43.261Z,6.53
2017-10-15T10:44:10.906Z,6.10
2017-10-15T10:46:39.338Z,6.20
2017-10-15T10:49:06.890Z,5.50
2017-10-15T10:51:34.390Z,6.57
2017-10-15T10:54:02.684Z,5.40
2017-10-15T10:56:30.242Z,5.20
2017-10-15T10:58:57.746Z,6.47
2017-10-15T11:01:27.215Z,5.30
2017-10-15T11:03:54.734Z,5.53
2017-10-15T11:06:22.258Z,4.93
2017-10-15T11:08:49.770Z,5.77
2017-10-15T11:11:17.289Z,5.27
2017-10-15T11:13:45.578Z,5.50
2017-10-15T11:16:13.109Z,5.70
2017-10-15T11:18:40.842Z,4.80
2017-10-15T11:21:08.810Z,5.30
2017-10-15T11:23:36.589Z,5.70
2017-10-15T11:26:04.116Z,5.57
2017-10-15T11:28:31.694Z,5.40
2017-10-15T11:30:59.554Z,5.17
2017-10-15T11:33:27.127Z,4.60
2017-10-15T11:35:56.594Z,4.60
2017-10-15T11:38:24.379Z,4.97
2017-10-15T11:40:51.898Z,5.60
2017-10-15T11:43:20.315Z,5.80
2017-10-15T11:45:48.284Z,5.30
2017-10-15T11:48:16.435Z,4.43
2017-10-15T11:50:45.155Z,5.53
2017-10-15T11:53:13.721Z,5.83
2017-10-15T11:55:41.247Z,4.13
2017-10-15T11:58:10.464Z,4.33
2017-10-15T12:00:37.987Z,5.10
2017-10-15T12:03:06.627Z,4.60
2017-10-15T12:05:34.808Z,4.63
2017-10-15T12:08:03.782Z,4.90
2017-10-15T12:10:31.749Z,4.53
2017-10-15T12:12:59.965Z,5.33
2017-10-15T12:15:27.992Z,4.97
2017-10-15T12:17:55.858Z,4.67
2017-10-15T12:20:23.934Z,4.40
2017-10-15T12:22:51.793Z,4.90
2017-10-15T12:25:19.763Z,4.33
2017-10-15T12:27:48.584Z,4.43
2017-10-15T12:30:17.437Z,4.83
2017-10-15T12:32:46.285Z,4.77
2017-10-15T12:35:15.572Z,3.90
2017-10-15T12:37:43.889Z,4.77
2017-10-15T12:40:11.390Z,4.87
2017-10-15T12:42:39.846Z,4.83
2017-10-15T12:45:07.367Z,4.27
2017-10-15T12:47:35.630Z,4.87
2017-10-15T12:50:03.924Z,4.80
2017-10-15T12:52:31.433Z,4.87
2017-10-15T12:54:58.966Z,4.80
2017-10-15T12:57:27.422Z,5.50
2017-10-15T12:59:54.953Z,12.47
2017-10-15T13:02:23.255Z,10.00
2017-10-15T13:04:50.798Z,8.03
2017-10-15T13:07:19.076Z,8.90
2017-10-15T13:09:47.376Z,6.13
2017-10-15T13:12:14.876Z,5.43
2017-10-15T13:14:42.434Z,8.13
2017-10-15T13:17:09.929Z,7.53
2017-10-15T13:19:37.446Z,7.03
2017-10-15T13:22:04.946Z,6.73
2017-10-15T13:24:34.462Z,5.60
2017-10-15T13:27:01.964Z,6.57
2017-10-15T13:29:29.500Z,5.60
2017-10-15T13:31:57.950Z,5.83
2017-10-15T13:34:25.468Z,5.90
2017-10-15T13:36:54.474Z,5.53
2017-10-15T13:39:22.757Z,5.90
2017-10-15T13:41:50.278Z,5.93
2017-10-15T13:44:17.799Z,5.43
2017-10-15T13:46:46.318Z,6.20
2017-10-15T13:49:13.847Z,4.80
2017-10-15T13:51:41.345Z,5.50
2017-10-15T13:54:09.634Z,6.30
2017-10-15T13:56:37.899Z,4.87
2017-10-15T13:59:06.162Z,5.40
2017-10-15T14:01:33.688Z,5.67
2017-10-15T14:04:01.190Z,6.00
2017-10-15T14:06:29.473Z,5.40
2017-10-15T14:08:57.743Z,5.33
2017-10-15T14:11:26.038Z,5.40
2017-10-15T14:13:53.526Z,5.73
2017-10-15T14:16:21.053Z,5.00
2017-10-15T14:18:48.565Z,5.80
2017-10-15T14:21:16.082Z,4.53
2017-10-15T14:23:43.581Z,5.00
2017-10-15T14:26:11.102Z,4.73
2017-10-15T14:28:38.597Z,5.00
2017-10-15T14:31:06.121Z,5.37
2017-10-15T14:33:33.618Z,5.30
2017-10-15T14:36:01.149Z,5.97
2017-10-15T14:38:28.646Z,4.87
2017-10-15T14:40:56.940Z,5.77
2017-10-15T14:43:24.442Z,5.20
2017-10-15T14:45:51.960Z,5.23
2017-10-15T14:48:20.408Z,5.10
2017-10-15T14:50:48.698Z,4.70
2017-10-15T14:53:16.966Z,5.83
2017-10-15T14:55:45.254Z,5.93
2017-10-15T14:58:13.513Z,4.70
2017-10-15T15:00:41.806Z,4.90
2017-10-15T15:03:10.070Z,5.23
2017-10-15T15:05:38.361Z,5.43
2017-10-15T15:08:05.864Z,4.70
2017-10-15T15:10:33.382Z,5.80
2017-10-15T15:13:00.887Z,6.07
2017-10-15T15:15:28.418Z,5.70
2017-10-15T15:17:56.850Z,5.27
2017-10-15T15:20:25.137Z,6.37
2017-10-15T15:22:52.650Z,5.60
2017-10-15T15:25:22.120Z,5.40
2017-10-15T15:27:49.618Z,5.13
2017-10-15T15:30:17.141Z,5.83
2017-10-15T15:32:44.637Z,5.60
2017-10-15T15:35:12.162Z,6.33
2017-10-15T15:37:39.662Z,6.33
2017-10-15T15:40:07.945Z,6.63
2017-10-15T15:42:36.207Z,5.43
2017-10-15T15:45:04.511Z,5.30
2017-10-15T15:47:32.014Z,6.30
2017-10-15T15:49:59.528Z,5.47
2017-10-15T15:52:27.994Z,5.70
2017-10-15T15:54:56.294Z,5.77
2017-10-15T15:57:23.789Z,6.10
2017-10-15T15:59:51.310Z,6.10
2017-10-15T16:02:18.806Z,5.50
2017-10-15T16:04:46.324Z,5.27
2017-10-15T16:07:13.821Z,6.03
2017-10-15T16:09:41.342Z,5.70
2017-10-15T16:12:08.851Z,5.87
2017-10-15T16:14:37.137Z,5.70
2017-10-15T16:17:05.407Z,5.77
2017-10-15T16:19:34.865Z,6.23
2017-10-15T16:22:02.359Z,6.03
2017-10-15T16:24:30.642Z,6.43
2017-10-15T16:26:58.910Z,6.37
2017-10-15T16:29:27.201Z,6.40
2017-10-15T16:31:55.459Z,6.13
2017-10-15T16:34:24.487Z,6.37
2017-10-15T16:36:51.990Z,6.50
2017-10-15T16:39:19.515Z,6.50
2017-10-15T16:41:47.975Z,6.03
2017-10-15T16:44:15.509Z,6.20
2017-10-15T16:46:43.775Z,7.20
2017-10-15T16:49:12.199Z,5.90
2017-10-15T16:51:39.704Z,6.93
2017-10-15T16:54:08.949Z,6.03
2017-10-15T16:56:36.450Z,5.93
2017-10-15T16:59:03.971Z,6.53
2017-10-15T17:01:31.466Z,6.07
2017-10-15T17:03:58.982Z,5.70
2017-10-15T17:06:26.483Z,6.20
2017-10-15T17:08:54.018Z,6.73
2017-10-15T17:11:21.524Z,5.80
2017-10-15T17:13:49.810Z,6.50
2017-10-15T17:16:18.070Z,5.47
2017-10-15T17:18:46.361Z,6.17
2017-10-15T17:21:13.862Z,6.67
2017-10-15T17:23:41.390Z,5.70
2017-10-15T17:26:08.890Z,6.90
2017-10-15T17:28:36.446Z,5.87
2017-10-15T17:31:03.954Z,6.80
2017-10-15T17:33:32.422Z,5.63
2017-10-15T17:36:00.690Z,7.10
2017-10-15T17:38:28.970Z,6.43
2017-10-15T17:40:57.235Z,6.83
2017-10-15T17:43:25.514Z,6.10
2017-10-15T17:45:53.795Z,5.30
2017-10-15T17:48:22.087Z,6.07
2017-10-15T17:50:49.579Z,5.80
2017-10-15T17:53:17.123Z,6.90
2017-10-15T17:55:44.629Z,5.53
2017-10-15T17:58:12.917Z,5.97
2017-10-15T18:00:42.158Z,6.03
2017-10-15T18:03:09.683Z,5.80
2017-10-15T18:05:37.179Z,6.20
2017-10-15T18:08:04.693Z,5.97
2017-10-15T18:10:32.978Z,6.17
2017-10-15T18:13:02.460Z,6.20
2017-10-15T18:15:30.735Z,6.43
2017-10-15T18:17:59.026Z,6.00
2017-10-15T18:20:26.527Z,5.37
2017-10-15T18:22:54.054Z,6.20
2017-10-15T18:25:21.553Z,5.47
2017-10-15T18:27:50.583Z,6.70
2017-10-15T18:30:19.783Z,5.50
2017-10-15T18:32:47.312Z,6.10
2017-10-15T18:35:15.581Z,5.37
2017-10-15T18:37:43.093Z,5.87
2017-10-15T18:40:10.594Z,5.70
2017-10-15T18:42:39.626Z,5.33
2017-10-15T18:45:07.121Z,5.97
2017-10-15T18:47:34.617Z,5.73
2017-10-15T18:50:04.876Z,5.73
2017-10-15T18:52:32.370Z,5.50
2017-10-15T18:54:59.918Z,6.00
2017-10-15T18:57:27.422Z,6.40
2017-10-15T18:59:55.709Z,6.30
2017-10-15T19:02:23.261Z,6.13
2017-10-15T19:04:50.798Z,5.90
2017-10-15T19:07:19.062Z,5.53
2017-10-15T19:09:47.342Z,6.63
2017-10-15T19:12:15.609Z,5.40
2017-10-15T19:14:43.135Z,5.77
2017-10-15T19:17:10.634Z,5.37
2017-10-15T19:19:38.914Z,5.60
2017-10-15T19:22:07.190Z,5.77
2017-10-15T19:24:35.499Z,5.93
2017-10-15T19:27:03.946Z,5.70
2017-10-15T19:29:32.230Z,5.30
2017-10-15T19:32:00.493Z,5.30
2017-10-15T19:34:28.809Z,5.73
2017-10-15T19:36:56.342Z,6.07
2017-10-15T19:39:23.858Z,5.80
2017-10-15T19:41:51.389Z,6.10
2017-10-15T19:44:18.922Z,5.53
2017-10-15T19:46:46.472Z,6.13
2017-10-15T19:49:14.000Z,5.67
2017-10-15T19:51:42.266Z,5.87
2017-10-15T19:54:09.826Z,5.50
2017-10-15T19:56:37.327Z,4.80
2017-10-15T19:59:04.847Z,5.90
2017-10-15T20:01:33.122Z,5.90
2017-10-15T20:04:02.141Z,6.50
2017-10-15T20:06:30.406Z,6.27
2017-10-15T20:08:58.820Z,5.33
2017-10-15T20:11:26.343Z,5.93
2017-10-15T20:13:54.610Z,5.50
2017-10-15T20:16:22.877Z,5.50
2017-10-15T20:18:50.403Z,6.00
2017-10-15T20:21:17.904Z,5.40
2017-10-15T20:23:46.190Z,5.60
2017-10-15T20:26:14.459Z,6.57
2017-10-15T20:28:42.746Z,5.77
2017-10-15T20:31:10.243Z,5.50
2017-10-15T20:33:37.762Z,5.27
2017-10-15T20:36:05.262Z,5.40
2017-10-15T20:38:32.793Z,5.80
2017-10-15T20:41:00.291Z,5.43
2017-10-15T20:43:27.786Z,5.17
2017-10-15T20:45:56.071Z,5.27
2017-10-15T20:48:24.549Z,5.60
2017-10-15T20:50:52.077Z,5.43
2017-10-15T20:53:20.405Z,5.70
2017-10-15T20:55:47.906Z,5.83
2017-10-15T20:58:15.429Z,5.20
2017-10-15T21:00:42.931Z,5.70
2017-10-15T21:03:11.218Z,5.60
2017-10-15T21:05:39.482Z,5.40
2017-10-15T21:08:07.794Z,5.17
2017-10-15T21:10:35.290Z,5.33
2017-10-15T21:13:04.531Z,5.70
2017-10-15T21:15:32.034Z,5.80
2017-10-15T21:17:59.556Z,5.20
2017-10-15T21:20:27.062Z,5.10
2017-10-15T21:22:54.584Z,5.23
2017-10-15T21:25:23.046Z,5.27
2017-10-15T21:27:50.561Z,4.90
2017-10-15T21:30:18.064Z,5.90
2017-10-15T21:32:47.539Z,5.47
2017-10-15T21:35:15.806Z,5.10
2017-10-15T21:37:45.269Z,5.17
2017-10-15T21:40:12.766Z,5.40
2017-10-15T21:42:41.046Z,5.57
2017-10-15T21:45:09.306Z,4.43
2017-10-15T21:47:39.576Z,5.57
2017-10-15T21:50:07.077Z,5.10
2017-10-15T21:52:34.600Z,5.13
2017-10-15T21:55:02.127Z,5.70
2017-10-15T21:57:30.016Z,5.17
2017-10-15T21:59:57.619Z,5.80
2017-10-15T22:02:26.262Z,5.40
2017-10-15T22:04:53.761Z,5.27
2017-10-15T22:07:24.010Z,4.77
2017-10-15T22:09:52.286Z,5.30
2017-10-15T22:12:19.809Z,5.37
2017-10-15T22:14:47.415Z,5.87
2017-10-15T22:17:15.396Z,5.17
2017-10-15T22:19:43.363Z,4.77
2017-10-15T22:22:16.910Z,4.40
2017-10-15T22:24:45.199Z,4.57
2017-10-15T22:27:13.491Z,5.40
2017-10-15T22:29:41.275Z,4.43
2017-10-15T22:32:09.026Z,4.90
2017-10-15T22:34:36.801Z,4.90
2017-10-15T22:37:04.605Z,4.80
2017-10-15T22:39:33.288Z,5.23
2017-10-15T22:42:01.934Z,5.30
2017-10-15T22:44:29.903Z,4.70
2017-10-15T22:46:57.975Z,4.90
2017-10-15T22:49:25.941Z,4.80
2017-10-15T22:51:55.446Z,4.70
2017-10-15T22:54:24.332Z,4.70
2017-10-15T22:56:52.501Z,4.50
2017-10-15T22:59:20.813Z,4.87
2017-10-15T23:01:50.308Z,4.70
2017-10-15T23:04:19.072Z,4.67
2017-10-15T23:06:48.065Z,4.80
2017-10-15T23:09:16.097Z,4.73
2017-10-15T23:11:44.919Z,4.63
2017-10-15T23:14:12.533Z,5.10
2017-10-15T23:16:41.060Z,4.40
2017-10-15T23:19:08.708Z,4.60
2017-10-15T23:21:36.328Z,4.70
2017-10-15T23:24:05.170Z,4.17
2017-10-15T23:26:33.237Z,4.43
2017-10-15T23:29:01.001Z,4.90
2017-10-15T23:31:28.969Z,5.20
2017-10-15T23:33:57.125Z,4.73
2017-10-15T23:36:24.961Z,4.27
2017-10-15T23:38:52.871Z,4.23
2017-10-15T23:41:22.370Z,3.93
2017-10-15T23:43:49.867Z,4.23
2017-10-15T23:46:17.394Z,4.50
2017-10-15T23:48:46.183Z,4.70
2017-10-15T23:51:14.249Z,4.10
2017-10-15T23:53:41.786Z,4.27
2017-10-15T23:56:09.669Z,4.60
2017-10-15T23:58:38.664Z,3.93
